CZMD

Muskrat Dam Airport

Muskrat Dam, Ontario, Canada
METAR CZMD 221800Z AUTO 32006KT 280V350 5SM -SN BKN009 OVC017 00/M00 A2991 RMK SLP148
Observed Flight Rules
Oct-22 @ 18:00 UTC (51 minutes ago) Instrument Flight Rules
Wind Visibility Clouds Conditions
320° at 6 knots 5 miles
  • Broken at 900' AGL
  • Overcast at 1,700' AGL
  • Light Snow
Temperatures Readings
Current 0°C / 32°F
Dewpoint 0°C / 32°F
Humidity 100%
Altimeter 29.91" Hg
Pressure 1014.8 hPa
Elevation 278
METAR CZMD 221800Z AUTO 32006KT 280V350 5SM -SN BKN009 OVC017 00/M00 A2991 RMK SLP148
Observed Flight Rules
Oct-22 @ 18:00 UTC
(51 minutes ago)
IFR
Wind Visibility
320° at 6 knots 5 miles
Clouds
  • Broken at 900' AGL
  • Overcast at 1,700' AGL
Conditions
  • Light Snow
Temperature Dewpoint
0°C / 32°F 0°C / 32°F
Humidity Altimeter Pressure
100% 29.91" Hg 1014.8 hPa